createdAt,value
2018-02-10T00:00:55.954Z,443.10
2018-02-10T00:01:55.922Z,435.40
2018-02-10T00:02:55.879Z,426.00
2018-02-10T00:03:55.849Z,452.30
2018-02-10T00:04:55.814Z,467.60
2018-02-10T00:05:55.774Z,469.40
2018-02-10T00:06:55.738Z,466.60
2018-02-10T00:07:55.701Z,461.30
2018-02-10T00:08:55.665Z,473.20
2018-02-10T00:09:55.627Z,460.40
2018-02-10T00:10:55.899Z,453.80
2018-02-10T00:11:55.572Z,464.00
2018-02-10T00:12:55.525Z,443.90
2018-02-10T00:13:55.497Z,446.60
2018-02-10T00:14:55.451Z,454.00
2018-02-10T00:15:55.416Z,455.50
2018-02-10T00:16:55.393Z,454.20
2018-02-10T00:17:55.350Z,448.90
2018-02-10T00:18:55.311Z,459.70
2018-02-10T00:19:55.269Z,444.30
2018-02-10T00:20:55.239Z,464.40
2018-02-10T00:21:55.205Z,467.90
2018-02-10T00:22:55.520Z,457.90
2018-02-10T00:23:55.141Z,454.60
2018-02-10T00:24:55.091Z,450.90
2018-02-10T00:25:55.107Z,488.20
2018-02-10T00:26:55.033Z,461.30
2018-02-10T00:27:54.991Z,467.60
2018-02-10T00:28:54.959Z,466.80
2018-02-10T00:29:54.918Z,453.30
2018-02-10T00:30:54.881Z,459.10
2018-02-10T00:31:54.839Z,466.00
2018-02-10T00:32:54.818Z,462.80
2018-02-10T00:33:55.076Z,455.90
2018-02-10T00:34:54.736Z,450.40
2018-02-10T00:35:54.698Z,455.00
2018-02-10T00:36:54.669Z,472.90
2018-02-10T00:37:54.628Z,474.20
2018-02-10T00:38:54.595Z,480.30
2018-02-10T00:39:54.565Z,485.30
2018-02-10T00:40:54.521Z,504.00
2018-02-10T00:41:54.491Z,484.70
2018-02-10T00:42:54.456Z,468.50
2018-02-10T00:43:54.423Z,478.10
2018-02-10T00:44:54.386Z,468.80
2018-02-10T00:45:54.350Z,478.80
2018-02-10T00:46:54.309Z,471.40
2018-02-10T00:47:54.273Z,470.30
2018-02-10T00:48:54.245Z,464.20
2018-02-10T00:49:54.205Z,478.80
2018-02-10T00:50:54.413Z,466.70
2018-02-10T00:51:54.124Z,472.70
2018-02-10T00:52:54.099Z,481.00
2018-02-10T00:53:54.057Z,474.30
2018-02-10T00:54:54.030Z,491.70
2018-02-10T00:55:53.990Z,496.80
2018-02-10T00:56:54.294Z,511.60
2018-02-10T00:57:53.914Z,496.80
2018-02-10T00:58:53.882Z,518.30
2018-02-10T00:59:53.849Z,517.90
2018-02-10T01:00:53.808Z,495.30
2018-02-10T01:01:53.774Z,512.10
2018-02-10T01:02:53.734Z,515.50
2018-02-10T01:03:53.698Z,535.10
2018-02-10T01:04:53.663Z,509.80
2018-02-10T01:05:53.627Z,528.00
2018-02-10T01:06:53.590Z,535.10
2018-02-10T01:07:53.557Z,537.60
2018-02-10T01:08:53.816Z,534.90
2018-02-10T01:09:53.488Z,526.50
2018-02-10T01:10:53.449Z,528.80
2018-02-10T01:11:53.412Z,533.90
2018-02-10T01:12:53.370Z,527.20
2018-02-10T01:13:53.364Z,525.20
2018-02-10T01:14:53.306Z,514.70
2018-02-10T01:15:53.269Z,525.40
2018-02-10T01:16:53.232Z,523.60
2018-02-10T01:17:53.197Z,521.20
2018-02-10T01:18:53.157Z,515.80
2018-02-10T01:19:53.121Z,513.80
2018-02-10T01:20:53.086Z,516.30
2018-02-10T01:21:53.052Z,502.50
2018-02-10T01:22:53.010Z,494.60
2018-02-10T01:23:52.977Z,476.70
2018-02-10T01:24:52.946Z,479.60
2018-02-10T01:25:53.152Z,485.60
2018-02-10T01:26:52.878Z,470.70
2018-02-10T01:27:52.844Z,473.50
2018-02-10T01:28:52.799Z,460.10
2018-02-10T01:29:52.759Z,472.80
2018-02-10T01:30:52.723Z,474.50
2018-02-10T01:31:52.995Z,467.00
2018-02-10T01:32:52.658Z,465.10
2018-02-10T01:33:52.630Z,461.40
2018-02-10T01:34:52.579Z,454.60
2018-02-10T01:35:52.549Z,476.80
2018-02-10T01:36:52.511Z,470.70
2018-02-10T01:37:52.732Z,474.20
2018-02-10T01:38:52.431Z,470.80
2018-02-10T01:39:52.397Z,482.80
2018-02-10T01:40:52.361Z,488.70
2018-02-10T01:41:52.330Z,499.00
2018-02-10T01:42:52.294Z,493.60
2018-02-10T01:43:52.264Z,498.00
2018-02-10T01:44:52.222Z,490.00
2018-02-10T01:45:52.180Z,507.80
2018-02-10T01:46:52.154Z,506.80
2018-02-10T01:47:52.114Z,502.30
2018-02-10T01:48:52.083Z,522.20
2018-02-10T01:49:52.039Z,523.50
2018-02-10T01:50:52.003Z,498.80
2018-02-10T01:51:51.977Z,519.90
2018-02-10T01:52:51.934Z,535.80
2018-02-10T01:53:51.898Z,531.60
2018-02-10T01:54:51.861Z,523.10
2018-02-10T01:55:51.823Z,540.10
2018-02-10T01:56:51.785Z,552.00
2018-02-10T01:57:51.757Z,546.60
2018-02-10T01:58:51.724Z,549.90
2018-02-10T01:59:51.684Z,530.00
2018-02-10T02:00:51.650Z,542.00
2018-02-10T02:01:51.911Z,551.20
2018-02-10T02:02:51.568Z,549.00
2018-02-10T02:03:51.530Z,553.80
2018-02-10T02:04:51.496Z,552.40
2018-02-10T02:05:51.459Z,555.40
2018-02-10T02:06:51.431Z,576.50
2018-02-10T02:07:51.645Z,584.40
2018-02-10T02:08:51.352Z,561.60
2018-02-10T02:09:51.321Z,565.60
2018-02-10T02:10:51.289Z,590.20
2018-02-10T02:11:51.248Z,576.50
2018-02-10T02:12:51.210Z,582.30
2018-02-10T02:13:51.181Z,580.30
2018-02-10T02:14:51.133Z,570.70
2018-02-10T02:15:51.108Z,588.20
2018-02-10T02:16:51.076Z,570.60
2018-02-10T02:17:51.030Z,567.70
2018-02-10T02:18:50.992Z,573.10
2018-02-10T02:19:50.958Z,573.70
2018-02-10T02:20:50.915Z,591.70
2018-02-10T02:21:50.886Z,594.80
2018-02-10T02:22:50.856Z,620.00
2018-02-10T02:23:50.815Z,613.10
2018-02-10T02:24:50.777Z,597.70
2018-02-10T02:25:50.738Z,586.20
2018-02-10T02:26:50.706Z,607.40
2018-02-10T02:27:50.671Z,603.40
2018-02-10T02:28:50.630Z,605.80
2018-02-10T02:29:50.848Z,568.60
2018-02-10T02:30:50.555Z,582.00
2018-02-10T02:31:50.523Z,589.30
2018-02-10T02:32:50.491Z,603.30
2018-02-10T02:33:50.454Z,563.60
2018-02-10T02:34:50.412Z,548.40
2018-02-10T02:35:50.726Z,565.90
2018-02-10T02:36:50.355Z,558.30
2018-02-10T02:37:50.302Z,573.00
2018-02-10T02:38:50.276Z,539.60
2018-02-10T02:39:50.235Z,529.10
2018-02-10T02:40:50.190Z,537.80
2018-02-10T02:41:50.163Z,572.50
2018-02-10T02:42:50.127Z,564.40
2018-02-10T02:43:50.086Z,531.00
2018-02-10T02:44:50.052Z,547.60
2018-02-10T02:45:50.014Z,550.30
2018-02-10T02:46:49.980Z,532.70
2018-02-10T02:47:49.938Z,531.20
2018-02-10T02:48:49.910Z,549.00
2018-02-10T02:49:49.872Z,550.80
2018-02-10T02:50:49.832Z,548.70
2018-02-10T02:51:49.795Z,550.40
2018-02-10T02:52:49.759Z,561.70
2018-02-10T02:53:49.970Z,549.10
2018-02-10T02:54:49.696Z,535.40
2018-02-10T02:55:49.662Z,536.30
2018-02-10T02:56:49.612Z,534.50
2018-02-10T02:57:49.577Z,545.40
2018-02-10T02:58:49.545Z,551.50
2018-02-10T02:59:49.511Z,559.60
2018-02-10T03:00:49.478Z,562.40
2018-02-10T03:01:49.439Z,558.60
2018-02-10T03:02:49.397Z,569.80
2018-02-10T03:03:49.359Z,555.90
2018-02-10T03:04:49.339Z,554.50
2018-02-10T03:05:49.296Z,553.00
2018-02-10T03:06:49.252Z,546.60
2018-02-10T03:07:49.217Z,544.80
2018-02-10T03:08:49.182Z,526.20
2018-02-10T03:09:49.137Z,544.70
2018-02-10T03:10:49.417Z,517.90
2018-02-10T03:11:49.072Z,515.80
2018-02-10T03:12:49.038Z,530.60
2018-02-10T03:13:48.995Z,550.90
2018-02-10T03:14:48.967Z,534.50
2018-02-10T03:15:48.930Z,543.60
2018-02-10T03:16:49.146Z,526.60
2018-02-10T03:17:48.860Z,512.60
2018-02-10T03:18:48.813Z,514.50
2018-02-10T03:19:48.784Z,523.80
2018-02-10T03:20:48.748Z,530.10
2018-02-10T03:21:48.714Z,503.70
2018-02-10T03:22:48.670Z,507.60
2018-02-10T03:23:48.631Z,509.40
2018-02-10T03:24:48.600Z,517.40
2018-02-10T03:25:48.560Z,522.10
2018-02-10T03:26:48.532Z,493.90
2018-02-10T03:27:48.492Z,493.50
2018-02-10T03:28:48.458Z,498.80
2018-02-10T03:29:48.412Z,512.30
2018-02-10T03:30:48.385Z,501.90
2018-02-10T03:31:48.346Z,499.50
2018-02-10T03:32:48.314Z,511.00
2018-02-10T03:33:48.271Z,504.10
2018-02-10T03:34:48.237Z,515.70
2018-02-10T03:35:48.196Z,507.50
2018-02-10T03:36:48.169Z,529.60
2018-02-10T03:37:48.125Z,517.00
2018-02-10T03:38:48.092Z,546.30
2018-02-10T03:39:48.051Z,542.90
2018-02-10T03:40:48.319Z,544.00
2018-02-10T03:41:47.981Z,529.90
2018-02-10T03:42:47.955Z,523.40
2018-02-10T03:43:47.906Z,523.50
2018-02-10T03:44:47.869Z,537.70
2018-02-10T03:45:47.832Z,549.50
2018-02-10T03:46:48.102Z,544.90
2018-02-10T03:47:47.766Z,531.70
2018-02-10T03:48:47.728Z,534.00
2018-02-10T03:49:47.686Z,530.20
2018-02-10T03:50:47.652Z,541.10
2018-02-10T03:51:47.614Z,516.20
2018-02-10T03:52:47.580Z,541.10
2018-02-10T03:53:47.541Z,536.30
2018-02-10T03:54:47.512Z,548.10
2018-02-10T03:55:47.470Z,543.00
2018-02-10T03:56:47.432Z,538.50
2018-02-10T03:57:47.398Z,549.00
2018-02-10T03:58:47.364Z,546.60
2018-02-10T03:59:47.327Z,559.20
2018-02-10T04:00:47.282Z,562.70
2018-02-10T04:01:47.249Z,546.00
2018-02-10T04:02:47.213Z,564.10
2018-02-10T04:03:47.177Z,563.00
2018-02-10T04:04:47.399Z,543.10
2018-02-10T04:05:47.110Z,540.80
2018-02-10T04:06:47.065Z,555.90
2018-02-10T04:07:47.037Z,556.30
2018-02-10T04:08:46.994Z,551.10
2018-02-10T04:09:46.959Z,544.70
2018-02-10T04:10:46.927Z,527.60
2018-02-10T04:11:46.892Z,548.30
2018-02-10T04:12:46.851Z,532.60
2018-02-10T04:13:46.820Z,531.80
2018-02-10T04:14:46.786Z,530.60
2018-02-10T04:15:47.036Z,538.60
2018-02-10T04:16:46.711Z,516.50
2018-02-10T04:17:46.667Z,532.10
2018-02-10T04:18:46.628Z,536.20
2018-02-10T04:19:46.593Z,538.50
2018-02-10T04:20:46.803Z,524.00
2018-02-10T04:21:46.520Z,532.50
2018-02-10T04:22:46.490Z,513.50
2018-02-10T04:23:46.446Z,520.60
2018-02-10T04:24:46.408Z,509.10
2018-02-10T04:25:46.372Z,507.90
2018-02-10T04:26:46.334Z,501.20
2018-02-10T04:27:46.358Z,485.60
2018-02-10T04:28:46.263Z,485.10
2018-02-10T04:29:46.232Z,491.20
2018-02-10T04:30:46.192Z,473.20
2018-02-10T04:31:46.151Z,474.20
2018-02-10T04:32:46.124Z,488.50
2018-02-10T04:33:46.082Z,477.00
2018-02-10T04:34:46.048Z,470.30
2018-02-10T04:35:46.013Z,470.10
2018-02-10T04:36:45.969Z,470.60
2018-02-10T04:37:45.930Z,463.60
2018-02-10T04:38:46.154Z,476.80
2018-02-10T04:39:45.859Z,498.00
2018-02-10T04:40:45.822Z,486.10
2018-02-10T04:41:45.782Z,470.50
2018-02-10T04:42:45.751Z,471.00
2018-02-10T04:43:45.715Z,478.60
2018-02-10T04:44:45.676Z,455.80
2018-02-10T04:45:45.639Z,467.00
2018-02-10T04:46:45.597Z,432.20
2018-02-10T04:47:45.573Z,445.80
2018-02-10T04:48:45.532Z,446.50
2018-02-10T04:49:45.493Z,437.90
2018-02-10T04:50:45.452Z,443.30
2018-02-10T04:51:45.421Z,430.30
2018-02-10T04:52:45.382Z,432.10
2018-02-10T04:53:45.341Z,430.60
2018-02-10T04:54:45.313Z,441.60
2018-02-10T04:55:45.521Z,429.80
2018-02-10T04:56:45.233Z,434.50
2018-02-10T04:57:45.203Z,438.20
2018-02-10T04:58:45.162Z,424.50
2018-02-10T04:59:45.129Z,422.40
2018-02-10T05:00:45.090Z,423.30
2018-02-10T05:01:45.407Z,415.70
2018-02-10T05:02:45.014Z,431.40
2018-02-10T05:03:44.982Z,433.40
2018-02-10T05:04:44.946Z,430.30
2018-02-10T05:05:44.907Z,381.50
2018-02-10T05:06:44.873Z,401.60
2018-02-10T05:07:44.830Z,435.10
2018-02-10T05:08:44.801Z,468.40
2018-02-10T05:09:44.754Z,481.30
2018-02-10T05:10:44.723Z,459.90
2018-02-10T05:11:44.687Z,468.50
2018-02-10T05:12:44.646Z,444.10
2018-02-10T05:13:44.907Z,444.50
2018-02-10T05:14:44.574Z,458.30
2018-02-10T05:15:44.538Z,457.10
2018-02-10T05:16:44.504Z,445.70
2018-02-10T05:17:44.468Z,456.30
2018-02-10T05:18:44.428Z,485.20
2018-02-10T05:19:44.391Z,476.30
2018-02-10T05:20:44.360Z,474.90
2018-02-10T05:21:44.321Z,497.60
2018-02-10T05:22:44.335Z,495.40
2018-02-10T05:23:44.246Z,493.30
2018-02-10T05:24:44.205Z,484.10
2018-02-10T05:25:44.466Z,497.70
2018-02-10T05:26:44.145Z,481.40
2018-02-10T05:27:44.102Z,468.20
2018-02-10T05:28:44.060Z,485.70
2018-02-10T05:29:44.021Z,501.80
2018-02-10T05:30:43.992Z,504.00
2018-02-10T05:31:43.951Z,486.00
2018-02-10T05:32:43.917Z,501.90
2018-02-10T05:33:43.882Z,498.40
2018-02-10T05:34:43.833Z,506.90
2018-02-10T05:35:43.802Z,501.40
2018-02-10T05:36:43.773Z,488.90
2018-02-10T05:37:43.989Z,491.30
2018-02-10T05:38:43.695Z,489.50
2018-02-10T05:39:43.654Z,485.30
2018-02-10T05:40:43.616Z,488.00
2018-02-10T05:41:43.575Z,491.70
2018-02-10T05:42:43.545Z,497.90
2018-02-10T05:43:43.506Z,487.20
2018-02-10T05:44:43.468Z,463.70
2018-02-10T05:45:43.428Z,462.90
2018-02-10T05:46:43.395Z,464.90
2018-02-10T05:47:43.364Z,473.60
2018-02-10T05:48:43.574Z,455.50
2018-02-10T05:49:43.294Z,468.60
2018-02-10T05:50:43.251Z,454.50
2018-02-10T05:51:43.212Z,465.80
2018-02-10T05:52:43.185Z,476.20
2018-02-10T05:53:43.140Z,468.50
2018-02-10T05:54:43.397Z,463.30
2018-02-10T05:55:43.065Z,464.60
2018-02-10T05:56:43.028Z,468.20
2018-02-10T05:57:42.995Z,457.50
2018-02-10T05:58:42.956Z,459.40
2018-02-10T05:59:42.926Z,464.60
2018-02-10T06:00:42.886Z,464.80
2018-02-10T06:01:42.843Z,451.50
2018-02-10T06:02:42.816Z,467.40
2018-02-10T06:03:42.773Z,454.10
2018-02-10T06:04:42.735Z,464.60
2018-02-10T06:05:42.706Z,452.40
2018-02-10T06:06:42.657Z,453.90
2018-02-10T06:07:42.618Z,414.80
2018-02-10T06:08:42.592Z,440.60
2018-02-10T06:09:42.552Z,436.90
2018-02-10T06:10:42.531Z,436.70
2018-02-10T06:11:42.475Z,425.00
2018-02-10T06:12:42.435Z,423.80
2018-02-10T06:13:42.399Z,447.70
2018-02-10T06:14:42.365Z,422.90
2018-02-10T06:15:42.333Z,418.80
2018-02-10T06:16:42.294Z,421.10
2018-02-10T06:17:42.254Z,416.70
2018-02-10T06:18:42.218Z,412.20
2018-02-10T06:19:42.175Z,431.30
2018-02-10T06:20:42.203Z,414.10
2018-02-10T06:21:42.105Z,422.40
2018-02-10T06:22:42.088Z,418.60
2018-02-10T06:23:42.048Z,409.80
2018-02-10T06:24:41.996Z,386.80
2018-02-10T06:25:41.962Z,364.10
2018-02-10T06:26:41.928Z,375.30
2018-02-10T06:27:41.889Z,389.70
2018-02-10T06:28:41.854Z,388.20
2018-02-10T06:29:41.820Z,377.50
2018-02-10T06:30:41.779Z,374.00
2018-02-10T06:31:41.742Z,376.60
2018-02-10T06:32:41.704Z,376.20
2018-02-10T06:33:41.668Z,354.30
2018-02-10T06:34:41.631Z,348.40
2018-02-10T06:35:41.589Z,355.20
2018-02-10T06:36:41.555Z,369.60
2018-02-10T06:37:41.514Z,348.20
2018-02-10T06:38:41.487Z,356.90
2018-02-10T06:39:41.449Z,361.50
2018-02-10T06:40:41.406Z,358.20
2018-02-10T06:41:41.365Z,352.20
2018-02-10T06:42:41.338Z,342.20
2018-02-10T06:43:41.297Z,332.00
2018-02-10T06:44:41.256Z,331.80
2018-02-10T06:45:41.228Z,327.20
2018-02-10T06:46:41.183Z,325.50
2018-02-10T06:47:41.150Z,326.80
2018-02-10T06:48:41.109Z,329.20
2018-02-10T06:49:41.077Z,337.80
2018-02-10T06:50:41.031Z,319.40
2018-02-10T06:51:41.001Z,330.30
2018-02-10T06:52:40.959Z,303.10
2018-02-10T06:53:41.175Z,306.90
2018-02-10T06:54:40.943Z,289.90
2018-02-10T06:55:40.853Z,304.10
2018-02-10T06:56:40.816Z,303.70
2018-02-10T06:57:40.770Z,276.40
2018-02-10T06:58:40.744Z,277.00
2018-02-10T06:59:41.005Z,287.30
2018-02-10T07:00:40.670Z,303.20
2018-02-10T07:01:40.629Z,295.00
2018-02-10T07:02:40.590Z,297.90
2018-02-10T07:03:40.555Z,297.10
2018-02-10T07:04:40.523Z,301.40
2018-02-10T07:05:40.480Z,284.50
2018-02-10T07:06:40.471Z,292.60
2018-02-10T07:07:40.405Z,283.60
2018-02-10T07:08:40.367Z,289.30
2018-02-10T07:09:40.333Z,262.70
2018-02-10T07:10:40.302Z,267.90
2018-02-10T07:11:40.262Z,279.30
2018-02-10T07:12:40.219Z,278.60
2018-02-10T07:13:40.246Z,282.80
2018-02-10T07:14:40.154Z,264.10
2018-02-10T07:15:40.114Z,263.70
2018-02-10T07:16:40.082Z,270.00
2018-02-10T07:17:40.042Z,283.80
2018-02-10T07:18:40.008Z,276.40
2018-02-10T07:19:39.959Z,267.50
2018-02-10T07:20:39.932Z,279.40
2018-02-10T07:21:39.895Z,260.70
2018-02-10T07:22:39.857Z,274.40
2018-02-10T07:23:39.817Z,287.30
2018-02-10T07:24:39.779Z,279.10
2018-02-10T07:25:39.748Z,253.00
2018-02-10T07:26:39.711Z,261.70
2018-02-10T07:27:39.688Z,269.70
2018-02-10T07:28:39.634Z,264.50
2018-02-10T07:29:39.600Z,250.60
2018-02-10T07:30:39.567Z,232.10
2018-02-10T07:31:39.530Z,225.80
2018-02-10T07:32:39.497Z,250.00
2018-02-10T07:33:39.459Z,250.80
2018-02-10T07:34:39.419Z,253.90
2018-02-10T07:35:39.381Z,252.80
2018-02-10T07:36:39.348Z,249.90
2018-02-10T07:37:39.311Z,241.30
2018-02-10T07:38:39.298Z,238.00
2018-02-10T07:39:39.235Z,247.40
2018-02-10T07:40:39.216Z,235.50
2018-02-10T07:41:39.161Z,241.20
2018-02-10T07:42:39.136Z,243.10
2018-02-10T07:43:39.104Z,237.00
2018-02-10T07:44:39.061Z,230.30
2018-02-10T07:45:39.017Z,237.30
2018-02-10T07:46:38.989Z,232.10
2018-02-10T07:47:38.954Z,226.30
2018-02-10T07:48:38.919Z,218.10
2018-02-10T07:49:38.883Z,216.20
2018-02-10T07:50:38.841Z,235.70
2018-02-10T07:51:38.811Z,215.00
2018-02-10T07:52:39.080Z,218.30
2018-02-10T07:53:38.749Z,211.00
2018-02-10T07:54:38.701Z,204.20
2018-02-10T07:55:38.672Z,206.90
2018-02-10T07:56:38.631Z,199.70
2018-02-10T07:57:38.598Z,201.80
2018-02-10T07:58:38.820Z,202.00
2018-02-10T07:59:38.537Z,197.30
2018-02-10T08:00:38.495Z,194.90
2018-02-10T08:01:38.457Z,204.10
2018-02-10T08:02:38.428Z,196.50
2018-02-10T08:03:38.402Z,196.80
2018-02-10T08:04:38.607Z,197.70
2018-02-10T08:05:38.323Z,204.50
2018-02-10T08:06:38.290Z,189.20
2018-02-10T08:07:38.254Z,201.50
2018-02-10T08:08:38.231Z,198.00
2018-02-10T08:09:38.188Z,200.90
2018-02-10T08:10:38.154Z,200.40
2018-02-10T08:11:38.115Z,195.80
2018-02-10T08:12:38.087Z,189.10
2018-02-10T08:13:38.052Z,193.00
2018-02-10T08:14:38.023Z,191.00
2018-02-10T08:15:37.984Z,185.00
2018-02-10T08:16:37.948Z,193.80
2018-02-10T08:17:37.929Z,179.60
2018-02-10T08:18:37.884Z,187.50
2018-02-10T08:19:37.848Z,173.80
2018-02-10T08:20:37.819Z,189.70
2018-02-10T08:21:37.782Z,169.70
2018-02-10T08:22:37.745Z,173.70
2018-02-10T08:23:37.767Z,175.40
2018-02-10T08:24:37.687Z,166.90
2018-02-10T08:25:37.647Z,163.70
2018-02-10T08:26:37.617Z,163.50
2018-02-10T08:27:37.591Z,166.90
2018-02-10T08:28:37.807Z,166.40
2018-02-10T08:29:37.524Z,159.60
2018-02-10T08:30:37.483Z,167.20
2018-02-10T08:31:37.456Z,159.90
2018-02-10T08:32:37.432Z,152.30
2018-02-10T08:33:37.394Z,152.90
2018-02-10T08:34:37.611Z,146.10
2018-02-10T08:35:37.328Z,141.70
2018-02-10T08:36:37.287Z,152.10
2018-02-10T08:37:37.267Z,148.50
2018-02-10T08:38:37.227Z,156.30
2018-02-10T08:39:37.200Z,147.90
2018-02-10T08:40:37.224Z,144.70
2018-02-10T08:41:37.139Z,138.50
2018-02-10T08:42:37.106Z,145.80
2018-02-10T08:43:37.073Z,139.90
2018-02-10T08:44:37.040Z,141.80
2018-02-10T08:45:37.009Z,135.60
2018-02-10T08:46:36.971Z,140.90
2018-02-10T08:47:36.942Z,138.20
2018-02-10T08:48:36.912Z,133.60
2018-02-10T08:49:36.884Z,138.40
2018-02-10T08:50:36.847Z,139.10
2018-02-10T08:51:36.812Z,133.80
2018-02-10T08:52:36.791Z,130.60
2018-02-10T08:53:36.757Z,132.90
2018-02-10T08:54:36.728Z,132.50
2018-02-10T08:55:36.697Z,132.40
2018-02-10T08:56:36.665Z,134.40
2018-02-10T08:57:36.632Z,137.90
2018-02-10T08:58:36.851Z,131.40
2018-02-10T08:59:36.570Z,125.70
2018-02-10T09:00:36.553Z,131.40
2018-02-10T09:01:36.505Z,125.60
2018-02-10T09:02:36.507Z,132.50
2018-02-10T09:03:36.441Z,129.00
2018-02-10T09:04:36.421Z,127.90
2018-02-10T09:05:36.387Z,129.20
2018-02-10T09:06:36.353Z,123.50
2018-02-10T09:07:36.321Z,127.60
2018-02-10T09:08:36.292Z,122.80
2018-02-10T09:09:36.261Z,123.30
2018-02-10T09:10:36.537Z,125.60
2018-02-10T09:11:36.203Z,121.30
2018-02-10T09:12:36.174Z,127.50
2018-02-10T09:13:36.145Z,120.70
2018-02-10T09:14:36.117Z,120.70
2018-02-10T09:15:36.086Z,119.40
2018-02-10T09:16:36.057Z,119.40
2018-02-10T09:17:36.028Z,116.40
2018-02-10T09:18:35.996Z,113.70
2018-02-10T09:19:35.964Z,118.70
2018-02-10T09:20:35.942Z,115.90
2018-02-10T09:21:35.912Z,119.40
2018-02-10T09:22:36.174Z,117.40
2018-02-10T09:23:35.845Z,117.90
2018-02-10T09:24:35.818Z,121.20
2018-02-10T09:25:35.792Z,124.30
2018-02-10T09:26:35.769Z,119.80
2018-02-10T09:27:35.737Z,115.80
2018-02-10T09:28:35.708Z,115.60
2018-02-10T09:29:35.675Z,124.90
2018-02-10T09:30:35.651Z,117.00
2018-02-10T09:31:35.623Z,124.10
2018-02-10T09:32:35.591Z,121.80
2018-02-10T09:33:35.564Z,113.50
2018-02-10T09:34:35.534Z,114.70
2018-02-10T09:35:35.503Z,116.50
2018-02-10T09:36:35.478Z,120.00
2018-02-10T09:37:35.499Z,114.40
2018-02-10T09:38:35.421Z,119.10
2018-02-10T09:39:35.386Z,126.50
2018-02-10T09:40:35.362Z,122.60
2018-02-10T09:41:35.339Z,118.50
2018-02-10T09:42:35.305Z,118.00
2018-02-10T09:43:35.278Z,118.50
2018-02-10T09:44:35.247Z,112.60
2018-02-10T09:45:35.223Z,111.80
2018-02-10T09:46:35.192Z,109.60
2018-02-10T09:47:35.177Z,113.70
2018-02-10T09:48:35.140Z,111.10
2018-02-10T09:49:35.142Z,116.80
2018-02-10T09:50:35.075Z,114.00
2018-02-10T09:51:35.053Z,109.50
2018-02-10T09:52:35.025Z,113.70
2018-02-10T09:53:34.997Z,111.70
2018-02-10T09:54:34.968Z,105.80
2018-02-10T09:55:34.939Z,106.20
2018-02-10T09:56:34.909Z,107.40
2018-02-10T09:57:34.880Z,109.80
2018-02-10T09:58:35.117Z,103.30
2018-02-10T09:59:34.828Z,107.20
2018-02-10T10:00:34.802Z,109.60
2018-02-10T10:01:34.770Z,108.40
2018-02-10T10:02:34.745Z,101.50
2018-02-10T10:03:34.719Z,106.80
2018-02-10T10:04:34.945Z,105.20
2018-02-10T10:05:34.672Z,111.20
2018-02-10T10:06:34.638Z,109.60
2018-02-10T10:07:34.608Z,117.70
2018-02-10T10:08:34.614Z,113.10
2018-02-10T10:09:34.561Z,111.50
2018-02-10T10:10:34.616Z,107.50
2018-02-10T10:11:34.501Z,106.60
2018-02-10T10:12:34.481Z,109.60
2018-02-10T10:13:34.447Z,105.20
2018-02-10T10:14:34.421Z,110.10
2018-02-10T10:15:34.396Z,104.60
2018-02-10T10:16:34.363Z,110.40
2018-02-10T10:17:34.345Z,109.10
2018-02-10T10:18:34.340Z,106.10
2018-02-10T10:19:34.287Z,109.20
2018-02-10T10:20:34.301Z,109.30
2018-02-10T10:21:34.242Z,95.60
2018-02-10T10:22:34.199Z,99.40
2018-02-10T10:23:34.174Z,107.60
2018-02-10T10:24:34.153Z,99.90
2018-02-10T10:25:34.126Z,102.70
2018-02-10T10:26:34.093Z,106.70
2018-02-10T10:27:34.073Z,108.70
2018-02-10T10:28:34.299Z,102.90
2018-02-10T10:29:34.020Z,107.00
2018-02-10T10:30:33.993Z,105.40
2018-02-10T10:31:33.965Z,105.00
2018-02-10T10:32:33.939Z,107.60
2018-02-10T10:33:33.917Z,101.50
2018-02-10T10:34:33.880Z,103.60
2018-02-10T10:35:33.854Z,105.10
2018-02-10T10:36:33.834Z,102.60
2018-02-10T10:37:33.806Z,104.70
2018-02-10T10:38:33.798Z,111.40
2018-02-10T10:39:33.761Z,106.20
2018-02-10T10:40:33.775Z,108.10
2018-02-10T10:41:33.698Z,110.90
2018-02-10T10:42:33.676Z,104.50
2018-02-10T10:43:33.652Z,106.50
2018-02-10T10:44:33.634Z,106.80
2018-02-10T10:45:33.602Z,105.10
2018-02-10T10:46:33.873Z,100.20
2018-02-10T10:47:33.559Z,104.00
2018-02-10T10:48:33.545Z,97.90
2018-02-10T10:49:33.525Z,98.60
2018-02-10T10:50:33.474Z,101.20
2018-02-10T10:51:33.446Z,108.70
2018-02-10T10:52:33.732Z,99.90
2018-02-10T10:53:33.390Z,104.50
2018-02-10T10:54:33.374Z,98.80
2018-02-10T10:55:33.345Z,101.40
2018-02-10T10:56:33.318Z,103.80
2018-02-10T10:57:33.289Z,101.00
2018-02-10T10:58:33.269Z,102.60
2018-02-10T10:59:33.245Z,99.00
2018-02-10T11:00:33.221Z,102.80
2018-02-10T11:01:33.211Z,97.80
2018-02-10T11:02:33.176Z,104.00
2018-02-10T11:03:33.135Z,100.30
2018-02-10T11:04:33.113Z,99.20
2018-02-10T11:05:33.089Z,104.50
2018-02-10T11:06:33.059Z,100.50
2018-02-10T11:07:33.030Z,103.60
2018-02-10T11:08:33.013Z,97.80
2018-02-10T11:09:32.986Z,103.10
2018-02-10T11:10:32.958Z,100.60
2018-02-10T11:11:32.932Z,106.30
2018-02-10T11:12:32.905Z,102.90
2018-02-10T11:13:32.874Z,106.40
2018-02-10T11:14:32.850Z,105.90
2018-02-10T11:15:32.830Z,105.30
2018-02-10T11:16:32.805Z,99.00
2018-02-10T11:17:32.776Z,102.80
2018-02-10T11:18:32.750Z,104.90
2018-02-10T11:19:32.721Z,105.20
2018-02-10T11:20:32.707Z,104.40
2018-02-10T11:21:32.672Z,108.50
2018-02-10T11:22:32.938Z,105.80
2018-02-10T11:23:32.616Z,106.90
2018-02-10T11:24:32.584Z,100.70
2018-02-10T11:25:32.557Z,96.00
2018-02-10T11:26:32.534Z,104.20
2018-02-10T11:27:32.514Z,104.40
2018-02-10T11:28:32.478Z,102.60
2018-02-10T11:29:32.455Z,103.10
2018-02-10T11:30:32.428Z,102.90
2018-02-10T11:31:32.405Z,100.30
2018-02-10T11:32:32.385Z,99.70
2018-02-10T11:33:32.387Z,99.60
2018-02-10T11:34:32.323Z,98.20
2018-02-10T11:35:32.307Z,94.60
2018-02-10T11:36:32.281Z,94.50
2018-02-10T11:37:32.245Z,97.10
2018-02-10T11:38:32.214Z,98.30
2018-02-10T11:39:32.216Z,100.80
2018-02-10T11:40:32.167Z,99.80
2018-02-10T11:41:32.139Z,101.20
2018-02-10T11:42:32.137Z,100.80
2018-02-10T11:43:32.089Z,104.20
2018-02-10T11:44:32.071Z,95.50
2018-02-10T11:45:32.046Z,99.50
2018-02-10T11:46:32.021Z,97.90
2018-02-10T11:47:31.998Z,98.10
2018-02-10T11:48:31.969Z,98.90
2018-02-10T11:49:31.948Z,105.40
2018-02-10T11:50:31.915Z,101.00
2018-02-10T11:51:31.887Z,101.80
2018-02-10T11:52:31.870Z,93.10
2018-02-10T11:53:31.841Z,94.10
2018-02-10T11:54:31.823Z,96.60
2018-02-10T11:55:31.794Z,97.10
2018-02-10T11:56:31.768Z,97.10
2018-02-10T11:57:31.990Z,100.70
2018-02-10T11:58:31.725Z,97.10
2018-02-10T11:59:31.724Z,96.90
2018-02-10T12:00:31.701Z,95.80
2018-02-10T12:01:31.645Z,99.60
2018-02-10T12:02:31.627Z,99.20
2018-02-10T12:03:31.603Z,98.70
2018-02-10T12:04:31.581Z,99.60
2018-02-10T12:05:31.606Z,97.90
2018-02-10T12:06:31.527Z,99.80
2018-02-10T12:07:31.501Z,98.00
2018-02-10T12:08:31.480Z,95.50
2018-02-10T12:09:31.452Z,98.90
2018-02-10T12:10:31.433Z,96.70
2018-02-10T12:11:31.400Z,96.90
2018-02-10T12:12:31.376Z,92.60
2018-02-10T12:13:31.394Z,100.00
2018-02-10T12:14:31.575Z,100.40
2018-02-10T12:15:31.307Z,97.50
2018-02-10T12:16:31.277Z,97.20
2018-02-10T12:17:31.248Z,101.00
2018-02-10T12:18:31.227Z,100.60
2018-02-10T12:19:31.204Z,102.40
2018-02-10T12:20:31.178Z,93.60
2018-02-10T12:21:31.152Z,96.50
2018-02-10T12:22:31.119Z,96.30
2018-02-10T12:23:31.095Z,96.90
2018-02-10T12:24:31.084Z,95.90
2018-02-10T12:25:31.049Z,97.10
2018-02-10T12:26:31.021Z,107.90
2018-02-10T12:27:30.996Z,109.30
2018-02-10T12:28:30.974Z,97.60
2018-02-10T12:29:30.946Z,105.90
2018-02-10T12:30:30.928Z,105.20